sensor_id;sensor_type;location;lat;lon;timestamp;temperature;humidity
25342;DHT22;13298;48.792;9.154;2023-11-19T00:00:31;7.60;99.90
25342;DHT22;13298;48.792;9.154;2023-11-19T00:02:57;7.60;99.90
25342;DHT22;13298;48.792;9.154;2023-11-19T00:05:22;7.70;99.90
25342;DHT22;13298;48.792;9.154;2023-11-19T00:07:48;7.70;99.90
25342;DHT22;13298;48.792;9.154;2023-11-19T00:10:15;7.80;99.90
25342;DHT22;13298;48.792;9.154;2023-11-19T00:12:46;7.90;99.90
25342;DHT22;13298;48.792;9.154;2023-11-19T00:15:15;7.90;99.90
25342;DHT22;13298;48.792;9.154;2023-11-19T00:17:44;8.00;99.90
25342;DHT22;13298;48.792;9.154;2023-11-19T00:20:15;8.10;99.90
25342;DHT22;13298;48.792;9.154;2023-11-19T00:22:45;8.20;99.90
25342;DHT22;13298;48.792;9.154;2023-11-19T00:25:20;8.20;99.90
25342;DHT22;13298;48.792;9.154;2023-11-19T00:27:49;8.30;99.90
25342;DHT22;13298;48.792;9.154;2023-11-19T00:30:16;8.30;99.90
25342;DHT22;13298;48.792;9.154;2023-11-19T00:32:42;8.30;99.90
25342;DHT22;13298;48.792;9.154;2023-11-19T00:35:08;8.40;99.90
25342;DHT22;13298;48.792;9.154;2023-11-19T00:37:39;8.50;99.90
25342;DHT22;13298;48.792;9.154;2023-11-19T00:40:05;8.50;99.90
25342;DHT22;13298;48.792;9.154;2023-11-19T00:42:32;8.50;99.90
25342;DHT22;13298;48.792;9.154;2023-11-19T00:44:57;8.60;99.90
25342;DHT22;13298;48.792;9.154;2023-11-19T00:47:23;8.60;99.90
25342;DHT22;13298;48.792;9.154;2023-11-19T00:49:49;8.60;99.90
25342;DHT22;13298;48.792;9.154;2023-11-19T00:52:16;8.60;99.90
25342;DHT22;13298;48.792;9.154;2023-11-19T00:54:43;8.70;99.90
25342;DHT22;13298;48.792;9.154;2023-11-19T00:57:08;8.70;99.90
25342;DHT22;13298;48.792;9.154;2023-11-19T00:59:34;8.70;99.90
25342;DHT22;13298;48.792;9.154;2023-11-19T01:02:00;8.70;99.90
25342;DHT22;13298;48.792;9.154;2023-11-19T01:04:35;8.70;99.90
25342;DHT22;13298;48.792;9.154;2023-11-19T01:07:04;8.70;99.90
25342;DHT22;13298;48.792;9.154;2023-11-19T01:09:31;8.80;99.90
25342;DHT22;13298;48.792;9.154;2023-11-19T01:11:58;8.80;99.90
25342;DHT22;13298;48.792;9.154;2023-11-19T01:14:26;8.80;99.90
25342;DHT22;13298;48.792;9.154;2023-11-19T01:16:52;8.80;99.90
25342;DHT22;13298;48.792;9.154;2023-11-19T01:19:19;8.90;99.90
25342;DHT22;13298;48.792;9.154;2023-11-19T01:21:46;8.90;99.90
25342;DHT22;13298;48.792;9.154;2023-11-19T01:24:12;8.90;99.90
25342;DHT22;13298;48.792;9.154;2023-11-19T01:26:39;8.90;99.90
25342;DHT22;13298;48.792;9.154;2023-11-19T01:29:13;8.90;99.90
25342;DHT22;13298;48.792;9.154;2023-11-19T01:31:40;8.90;99.90
25342;DHT22;13298;48.792;9.154;2023-11-19T01:34:06;9.00;99.90
25342;DHT22;13298;48.792;9.154;2023-11-19T01:36:32;9.00;99.90
25342;DHT22;13298;48.792;9.154;2023-11-19T01:38:58;9.00;99.90
25342;DHT22;13298;48.792;9.154;2023-11-19T01:41:23;9.00;99.90
25342;DHT22;13298;48.792;9.154;2023-11-19T01:43:50;9.10;99.90
25342;DHT22;13298;48.792;9.154;2023-11-19T01:46:16;9.10;99.90
25342;DHT22;13298;48.792;9.154;2023-11-19T01:48:44;9.10;99.90
25342;DHT22;13298;48.792;9.154;2023-11-19T01:51:14;9.10;99.90
25342;DHT22;13298;48.792;9.154;2023-11-19T01:53:43;9.20;99.90
25342;DHT22;13298;48.792;9.154;2023-11-19T01:56:10;9.20;99.90
25342;DHT22;13298;48.792;9.154;2023-11-19T01:58:37;9.20;99.90
25342;DHT22;13298;48.792;9.154;2023-11-19T02:01:07;9.20;99.90
25342;DHT22;13298;48.792;9.154;2023-11-19T02:03:34;9.20;99.90
25342;DHT22;13298;48.792;9.154;2023-11-19T02:06:00;9.20;99.90
25342;DHT22;13298;48.792;9.154;2023-11-19T02:08:26;9.20;99.90
25342;DHT22;13298;48.792;9.154;2023-11-19T02:10:52;9.30;99.90
25342;DHT22;13298;48.792;9.154;2023-11-19T02:13:20;9.30;99.90
25342;DHT22;13298;48.792;9.154;2023-11-19T02:15:45;9.30;99.90
25342;DHT22;13298;48.792;9.154;2023-11-19T02:18:22;9.30;99.90
25342;DHT22;13298;48.792;9.154;2023-11-19T02:20:53;9.30;99.90
25342;DHT22;13298;48.792;9.154;2023-11-19T02:23:20;9.30;99.90
25342;DHT22;13298;48.792;9.154;2023-11-19T02:28:27;9.40;99.90
25342;DHT22;13298;48.792;9.154;2023-11-19T02:30:53;9.40;99.90
25342;DHT22;13298;48.792;9.154;2023-11-19T02:33:19;9.40;99.90
25342;DHT22;13298;48.792;9.154;2023-11-19T02:35:44;9.40;99.90
25342;DHT22;13298;48.792;9.154;2023-11-19T02:38:10;9.40;99.90
25342;DHT22;13298;48.792;9.154;2023-11-19T02:40:36;9.40;99.90
25342;DHT22;13298;48.792;9.154;2023-11-19T02:43:02;9.40;99.90
25342;DHT22;13298;48.792;9.154;2023-11-19T02:45:30;9.40;99.90
25342;DHT22;13298;48.792;9.154;2023-11-19T02:47:56;9.40;99.90
25342;DHT22;13298;48.792;9.154;2023-11-19T02:50:22;9.40;99.90
25342;DHT22;13298;48.792;9.154;2023-11-19T02:52:53;9.40;99.90
25342;DHT22;13298;48.792;9.154;2023-11-19T02:55:22;9.50;99.90
25342;DHT22;13298;48.792;9.154;2023-11-19T02:57:49;9.50;99.90
25342;DHT22;13298;48.792;9.154;2023-11-19T03:00:16;9.50;99.90
25342;DHT22;13298;48.792;9.154;2023-11-19T03:02:44;9.50;99.90
25342;DHT22;13298;48.792;9.154;2023-11-19T03:05:14;9.60;99.90
25342;DHT22;13298;48.792;9.154;2023-11-19T03:07:41;9.60;99.90
25342;DHT22;13298;48.792;9.154;2023-11-19T03:10:09;9.60;99.90
25342;DHT22;13298;48.792;9.154;2023-11-19T03:12:42;9.60;99.90
25342;DHT22;13298;48.792;9.154;2023-11-19T03:15:09;9.60;99.90
25342;DHT22;13298;48.792;9.154;2023-11-19T03:17:37;9.60;99.90
25342;DHT22;13298;48.792;9.154;2023-11-19T03:20:06;9.60;99.90
25342;DHT22;13298;48.792;9.154;2023-11-19T03:22:32;9.60;99.90
25342;DHT22;13298;48.792;9.154;2023-11-19T03:25:01;9.60;99.90
25342;DHT22;13298;48.792;9.154;2023-11-19T03:27:26;9.70;99.90
25342;DHT22;13298;48.792;9.154;2023-11-19T03:29:52;9.70;99.90
25342;DHT22;13298;48.792;9.154;2023-11-19T03:32:18;9.70;99.90
25342;DHT22;13298;48.792;9.154;2023-11-19T03:34:43;9.70;99.90
25342;DHT22;13298;48.792;9.154;2023-11-19T03:37:09;9.70;99.90
25342;DHT22;13298;48.792;9.154;2023-11-19T03:39:35;9.70;99.90
25342;DHT22;13298;48.792;9.154;2023-11-19T03:42:01;9.70;99.90
25342;DHT22;13298;48.792;9.154;2023-11-19T03:44:27;9.70;99.90
25342;DHT22;13298;48.792;9.154;2023-11-19T03:46:53;9.70;99.90
25342;DHT22;13298;48.792;9.154;2023-11-19T03:49:18;9.70;99.90
25342;DHT22;13298;48.792;9.154;2023-11-19T03:51:44;9.70;99.90
25342;DHT22;13298;48.792;9.154;2023-11-19T03:54:09;9.70;99.90
25342;DHT22;13298;48.792;9.154;2023-11-19T03:56:36;9.80;99.90
25342;DHT22;13298;48.792;9.154;2023-11-19T03:59:02;9.80;99.90
25342;DHT22;13298;48.792;9.154;2023-11-19T04:01:28;9.80;99.90
25342;DHT22;13298;48.792;9.154;2023-11-19T04:03:54;9.80;99.90
25342;DHT22;13298;48.792;9.154;2023-11-19T04:06:21;9.80;99.90
25342;DHT22;13298;48.792;9.154;2023-11-19T04:08:47;9.80;99.90
25342;DHT22;13298;48.792;9.154;2023-11-19T04:11:12;9.80;99.90
25342;DHT22;13298;48.792;9.154;2023-11-19T04:13:38;9.90;99.90
25342;DHT22;13298;48.792;9.154;2023-11-19T04:16:04;9.80;99.90
25342;DHT22;13298;48.792;9.154;2023-11-19T04:18:30;9.90;99.90
25342;DHT22;13298;48.792;9.154;2023-11-19T04:20:57;9.90;99.90
25342;DHT22;13298;48.792;9.154;2023-11-19T04:23:23;9.90;99.90
25342;DHT22;13298;48.792;9.154;2023-11-19T04:25:50;9.90;99.90
25342;DHT22;13298;48.792;9.154;2023-11-19T04:28:16;9.90;99.90
25342;DHT22;13298;48.792;9.154;2023-11-19T04:30:41;9.90;99.90
25342;DHT22;13298;48.792;9.154;2023-11-19T04:33:07;9.90;99.90
25342;DHT22;13298;48.792;9.154;2023-11-19T04:35:33;10.00;99.90
25342;DHT22;13298;48.792;9.154;2023-11-19T04:37:58;10.00;99.90
25342;DHT22;13298;48.792;9.154;2023-11-19T04:40:24;9.90;99.90
25342;DHT22;13298;48.792;9.154;2023-11-19T04:42:50;10.00;99.90
25342;DHT22;13298;48.792;9.154;2023-11-19T04:45:16;10.00;99.90
25342;DHT22;13298;48.792;9.154;2023-11-19T04:47:44;10.00;99.90
25342;DHT22;13298;48.792;9.154;2023-11-19T04:50:10;10.00;99.90
25342;DHT22;13298;48.792;9.154;2023-11-19T04:52:38;10.00;99.90
25342;DHT22;13298;48.792;9.154;2023-11-19T04:55:07;10.00;99.90
25342;DHT22;13298;48.792;9.154;2023-11-19T04:57:36;10.00;99.90
25342;DHT22;13298;48.792;9.154;2023-11-19T05:00:03;10.10;99.90
25342;DHT22;13298;48.792;9.154;2023-11-19T05:02:30;10.10;99.90
25342;DHT22;13298;48.792;9.154;2023-11-19T05:04:56;10.10;99.90
25342;DHT22;13298;48.792;9.154;2023-11-19T05:07:22;10.10;99.90
25342;DHT22;13298;48.792;9.154;2023-11-19T05:09:47;10.10;99.90
25342;DHT22;13298;48.792;9.154;2023-11-19T05:12:13;10.10;99.90
25342;DHT22;13298;48.792;9.154;2023-11-19T05:14:39;10.10;99.90
25342;DHT22;13298;48.792;9.154;2023-11-19T05:17:05;10.20;99.90
25342;DHT22;13298;48.792;9.154;2023-11-19T05:19:30;10.20;99.90
25342;DHT22;13298;48.792;9.154;2023-11-19T05:21:56;10.20;99.90
25342;DHT22;13298;48.792;9.154;2023-11-19T05:24:22;10.20;99.90
25342;DHT22;13298;48.792;9.154;2023-11-19T05:26:48;10.20;99.90
25342;DHT22;13298;48.792;9.154;2023-11-19T05:29:15;10.30;99.90
25342;DHT22;13298;48.792;9.154;2023-11-19T05:31:41;10.30;99.90
25342;DHT22;13298;48.792;9.154;2023-11-19T05:34:07;10.30;99.90
25342;DHT22;13298;48.792;9.154;2023-11-19T05:36:33;10.30;99.90
25342;DHT22;13298;48.792;9.154;2023-11-19T05:38:59;10.30;99.90
25342;DHT22;13298;48.792;9.154;2023-11-19T05:41:24;10.40;99.90
25342;DHT22;13298;48.792;9.154;2023-11-19T05:43:50;10.40;99.90
25342;DHT22;13298;48.792;9.154;2023-11-19T05:46:16;10.40;99.90
25342;DHT22;13298;48.792;9.154;2023-11-19T05:48:42;10.30;99.90
25342;DHT22;13298;48.792;9.154;2023-11-19T05:51:08;10.40;99.90
25342;DHT22;13298;48.792;9.154;2023-11-19T05:53:33;10.40;99.90
25342;DHT22;13298;48.792;9.154;2023-11-19T05:55:59;10.40;99.90
25342;DHT22;13298;48.792;9.154;2023-11-19T05:58:29;10.40;99.90
25342;DHT22;13298;48.792;9.154;2023-11-19T06:00:56;10.40;99.90
25342;DHT22;13298;48.792;9.154;2023-11-19T06:03:22;10.40;99.90
25342;DHT22;13298;48.792;9.154;2023-11-19T06:05:49;10.30;99.90
25342;DHT22;13298;48.792;9.154;2023-11-19T06:08:15;10.30;99.90
25342;DHT22;13298;48.792;9.154;2023-11-19T06:10:42;10.20;99.90
25342;DHT22;13298;48.792;9.154;2023-11-19T06:13:12;10.20;99.90
25342;DHT22;13298;48.792;9.154;2023-11-19T06:15:41;10.20;99.90
25342;DHT22;13298;48.792;9.154;2023-11-19T06:18:07;10.10;99.90
25342;DHT22;13298;48.792;9.154;2023-11-19T06:20:33;10.20;99.90
25342;DHT22;13298;48.792;9.154;2023-11-19T06:23:00;10.20;99.90
25342;DHT22;13298;48.792;9.154;2023-11-19T06:25:26;10.20;99.90
25342;DHT22;13298;48.792;9.154;2023-11-19T06:27:52;10.20;99.90
25342;DHT22;13298;48.792;9.154;2023-11-19T06:30:18;10.30;99.90
25342;DHT22;13298;48.792;9.154;2023-11-19T06:32:44;10.30;99.90
25342;DHT22;13298;48.792;9.154;2023-11-19T06:35:10;10.40;99.90
25342;DHT22;13298;48.792;9.154;2023-11-19T06:37:38;10.40;99.90
25342;DHT22;13298;48.792;9.154;2023-11-19T06:40:04;10.40;99.90
25342;DHT22;13298;48.792;9.154;2023-11-19T06:42:31;10.40;99.90
25342;DHT22;13298;48.792;9.154;2023-11-19T06:44:56;10.50;99.90
25342;DHT22;13298;48.792;9.154;2023-11-19T06:47:26;10.50;99.90
25342;DHT22;13298;48.792;9.154;2023-11-19T06:49:53;10.50;99.90
25342;DHT22;13298;48.792;9.154;2023-11-19T06:52:19;10.50;99.90
25342;DHT22;13298;48.792;9.154;2023-11-19T06:54:45;10.50;99.90
25342;DHT22;13298;48.792;9.154;2023-11-19T06:57:11;10.50;99.90
25342;DHT22;13298;48.792;9.154;2023-11-19T06:59:37;10.50;99.90
25342;DHT22;13298;48.792;9.154;2023-11-19T07:02:03;10.60;99.90
25342;DHT22;13298;48.792;9.154;2023-11-19T07:04:30;10.60;99.90
25342;DHT22;13298;48.792;9.154;2023-11-19T07:06:56;10.50;99.90
25342;DHT22;13298;48.792;9.154;2023-11-19T07:09:22;10.50;99.90
25342;DHT22;13298;48.792;9.154;2023-11-19T07:11:49;10.40;99.90
25342;DHT22;13298;48.792;9.154;2023-11-19T07:14:17;10.40;99.90
25342;DHT22;13298;48.792;9.154;2023-11-19T07:16:43;10.40;99.90
25342;DHT22;13298;48.792;9.154;2023-11-19T07:19:10;10.40;99.90
25342;DHT22;13298;48.792;9.154;2023-11-19T07:21:36;10.40;99.90
25342;DHT22;13298;48.792;9.154;2023-11-19T07:24:05;10.50;99.90
25342;DHT22;13298;48.792;9.154;2023-11-19T07:26:31;10.50;99.90
25342;DHT22;13298;48.792;9.154;2023-11-19T07:28:57;10.50;99.90
25342;DHT22;13298;48.792;9.154;2023-11-19T07:31:24;10.60;99.90
25342;DHT22;13298;48.792;9.154;2023-11-19T07:33:49;10.60;99.90
25342;DHT22;13298;48.792;9.154;2023-11-19T07:36:15;10.60;99.90
25342;DHT22;13298;48.792;9.154;2023-11-19T07:38:41;10.70;99.90
25342;DHT22;13298;48.792;9.154;2023-11-19T07:41:08;10.70;99.90
25342;DHT22;13298;48.792;9.154;2023-11-19T07:43:39;10.70;99.90
25342;DHT22;13298;48.792;9.154;2023-11-19T07:46:10;10.80;99.90
25342;DHT22;13298;48.792;9.154;2023-11-19T07:48:38;10.80;99.90
25342;DHT22;13298;48.792;9.154;2023-11-19T07:51:04;10.80;99.90
25342;DHT22;13298;48.792;9.154;2023-11-19T07:53:30;10.80;99.90
25342;DHT22;13298;48.792;9.154;2023-11-19T07:55:56;10.90;99.90
25342;DHT22;13298;48.792;9.154;2023-11-19T07:58:21;10.90;99.90
25342;DHT22;13298;48.792;9.154;2023-11-19T08:00:47;10.90;99.90
25342;DHT22;13298;48.792;9.154;2023-11-19T08:03:13;10.90;99.90
25342;DHT22;13298;48.792;9.154;2023-11-19T08:05:38;11.00;99.90
25342;DHT22;13298;48.792;9.154;2023-11-19T08:08:04;11.00;99.90
25342;DHT22;13298;48.792;9.154;2023-11-19T08:10:30;11.00;99.90
25342;DHT22;13298;48.792;9.154;2023-11-19T08:12:58;11.10;99.90
25342;DHT22;13298;48.792;9.154;2023-11-19T08:15:24;11.20;99.90
25342;DHT22;13298;48.792;9.154;2023-11-19T08:17:49;11.20;99.90
25342;DHT22;13298;48.792;9.154;2023-11-19T08:20:16;11.30;99.90
25342;DHT22;13298;48.792;9.154;2023-11-19T08:22:42;11.30;99.90
25342;DHT22;13298;48.792;9.154;2023-11-19T08:25:08;11.20;99.90
25342;DHT22;13298;48.792;9.154;2023-11-19T08:27:34;11.10;99.90
25342;DHT22;13298;48.792;9.154;2023-11-19T08:29:59;11.20;99.90
25342;DHT22;13298;48.792;9.154;2023-11-19T08:32:28;11.30;99.90
25342;DHT22;13298;48.792;9.154;2023-11-19T08:34:54;11.50;99.90
25342;DHT22;13298;48.792;9.154;2023-11-19T08:37:21;11.70;99.90
25342;DHT22;13298;48.792;9.154;2023-11-19T08:39:47;11.90;99.90
25342;DHT22;13298;48.792;9.154;2023-11-19T08:42:14;12.10;99.90
25342;DHT22;13298;48.792;9.154;2023-11-19T08:44:40;12.40;99.90
25342;DHT22;13298;48.792;9.154;2023-11-19T08:47:10;12.60;99.90
25342;DHT22;13298;48.792;9.154;2023-11-19T08:49:36;12.70;99.90
25342;DHT22;13298;48.792;9.154;2023-11-19T08:52:02;12.70;99.90
25342;DHT22;13298;48.792;9.154;2023-11-19T08:54:28;12.70;99.90
25342;DHT22;13298;48.792;9.154;2023-11-19T08:56:53;12.50;99.90
25342;DHT22;13298;48.792;9.154;2023-11-19T08:59:19;12.40;99.90
25342;DHT22;13298;48.792;9.154;2023-11-19T09:01:45;12.40;99.90
25342;DHT22;13298;48.792;9.154;2023-11-19T09:04:11;12.40;99.90
25342;DHT22;13298;48.792;9.154;2023-11-19T09:06:36;12.50;99.90
25342;DHT22;13298;48.792;9.154;2023-11-19T09:09:02;12.60;99.90
25342;DHT22;13298;48.792;9.154;2023-11-19T09:11:30;12.70;99.90
25342;DHT22;13298;48.792;9.154;2023-11-19T09:13:57;12.70;99.90
25342;DHT22;13298;48.792;9.154;2023-11-19T09:16:22;12.70;99.90
25342;DHT22;13298;48.792;9.154;2023-11-19T09:18:48;12.90;99.90
25342;DHT22;13298;48.792;9.154;2023-11-19T09:21:14;13.00;99.90
25342;DHT22;13298;48.792;9.154;2023-11-19T09:23:40;13.00;99.90
25342;DHT22;13298;48.792;9.154;2023-11-19T09:26:06;13.00;99.90
25342;DHT22;13298;48.792;9.154;2023-11-19T09:28:32;13.00;99.90
25342;DHT22;13298;48.792;9.154;2023-11-19T09:30:58;13.00;99.90
25342;DHT22;13298;48.792;9.154;2023-11-19T09:33:24;13.00;99.90
25342;DHT22;13298;48.792;9.154;2023-11-19T09:35:50;13.00;99.90
25342;DHT22;13298;48.792;9.154;2023-11-19T09:38:16;13.00;99.90
25342;DHT22;13298;48.792;9.154;2023-11-19T09:40:42;13.10;99.90
25342;DHT22;13298;48.792;9.154;2023-11-19T09:43:08;13.10;99.90
25342;DHT22;13298;48.792;9.154;2023-11-19T09:45:48;13.20;99.90
25342;DHT22;13298;48.792;9.154;2023-11-19T09:48:17;13.30;99.90
25342;DHT22;13298;48.792;9.154;2023-11-19T09:50:45;13.40;99.90
25342;DHT22;13298;48.792;9.154;2023-11-19T09:53:12;13.50;99.90
25342;DHT22;13298;48.792;9.154;2023-11-19T09:55:39;13.50;99.90
25342;DHT22;13298;48.792;9.154;2023-11-19T09:58:05;13.60;99.90
25342;DHT22;13298;48.792;9.154;2023-11-19T10:00:32;13.70;99.90
25342;DHT22;13298;48.792;9.154;2023-11-19T10:02:59;13.80;99.90
25342;DHT22;13298;48.792;9.154;2023-11-19T10:05:25;13.90;99.90
25342;DHT22;13298;48.792;9.154;2023-11-19T10:07:52;13.90;99.90
25342;DHT22;13298;48.792;9.154;2023-11-19T10:10:18;14.00;99.90
25342;DHT22;13298;48.792;9.154;2023-11-19T10:12:47;14.00;99.90
25342;DHT22;13298;48.792;9.154;2023-11-19T10:15:24;14.00;99.90
25342;DHT22;13298;48.792;9.154;2023-11-19T10:17:55;14.10;99.90
25342;DHT22;13298;48.792;9.154;2023-11-19T10:20:22;14.20;99.90
25342;DHT22;13298;48.792;9.154;2023-11-19T10:22:47;14.20;99.90
25342;DHT22;13298;48.792;9.154;2023-11-19T10:25:24;14.40;99.90
25342;DHT22;13298;48.792;9.154;2023-11-19T10:27:51;14.40;99.90
25342;DHT22;13298;48.792;9.154;2023-11-19T10:30:25;14.40;99.90
25342;DHT22;13298;48.792;9.154;2023-11-19T10:33:05;14.50;99.90
25342;DHT22;13298;48.792;9.154;2023-11-19T10:35:57;14.50;99.90
25342;DHT22;13298;48.792;9.154;2023-11-19T10:38:23;14.60;99.90
25342;DHT22;13298;48.792;9.154;2023-11-19T10:40:50;14.70;99.90
25342;DHT22;13298;48.792;9.154;2023-11-19T10:43:17;14.70;99.90
25342;DHT22;13298;48.792;9.154;2023-11-19T10:45:43;14.70;99.90
25342;DHT22;13298;48.792;9.154;2023-11-19T10:48:10;14.60;99.90
25342;DHT22;13298;48.792;9.154;2023-11-19T10:50:39;14.70;99.90
25342;DHT22;13298;48.792;9.154;2023-11-19T10:53:06;14.70;99.90
25342;DHT22;13298;48.792;9.154;2023-11-19T10:55:37;14.70;99.90
25342;DHT22;13298;48.792;9.154;2023-11-19T10:58:06;14.70;99.90
25342;DHT22;13298;48.792;9.154;2023-11-19T11:00:57;14.80;99.90
25342;DHT22;13298;48.792;9.154;2023-11-19T11:03:25;14.80;99.90
25342;DHT22;13298;48.792;9.154;2023-11-19T11:05:53;15.00;99.90
25342;DHT22;13298;48.792;9.154;2023-11-19T11:08:20;15.00;99.90
25342;DHT22;13298;48.792;9.154;2023-11-19T11:10:52;15.10;99.90
25342;DHT22;13298;48.792;9.154;2023-11-19T11:13:22;15.10;99.90
25342;DHT22;13298;48.792;9.154;2023-11-19T11:15:49;15.10;99.90
25342;DHT22;13298;48.792;9.154;2023-11-19T11:18:17;15.00;99.90
25342;DHT22;13298;48.792;9.154;2023-11-19T11:20:46;15.00;99.90
25342;DHT22;13298;48.792;9.154;2023-11-19T11:23:28;15.00;99.90
25342;DHT22;13298;48.792;9.154;2023-11-19T11:29:41;14.90;99.90
25342;DHT22;13298;48.792;9.154;2023-11-19T11:38:04;14.60;99.90
25342;DHT22;13298;48.792;9.154;2023-11-19T11:40:32;14.40;99.90
25342;DHT22;13298;48.792;9.154;2023-11-19T11:42:58;14.30;99.90
25342;DHT22;13298;48.792;9.154;2023-11-19T11:45:38;14.10;99.90
25342;DHT22;13298;48.792;9.154;2023-11-19T11:48:15;13.90;99.90
25342;DHT22;13298;48.792;9.154;2023-11-19T11:50:49;13.80;99.90
25342;DHT22;13298;48.792;9.154;2023-11-19T11:53:26;13.80;99.90
25342;DHT22;13298;48.792;9.154;2023-11-19T11:55:53;13.90;99.90
25342;DHT22;13298;48.792;9.154;2023-11-19T11:58:29;13.90;99.90
25342;DHT22;13298;48.792;9.154;2023-11-19T12:00:59;14.00;99.90
25342;DHT22;13298;48.792;9.154;2023-11-19T12:03:28;14.00;99.90
25342;DHT22;13298;48.792;9.154;2023-11-19T12:05:55;13.90;99.90
25342;DHT22;13298;48.792;9.154;2023-11-19T12:08:25;13.90;99.90
25342;DHT22;13298;48.792;9.154;2023-11-19T12:10:56;14.00;99.90
25342;DHT22;13298;48.792;9.154;2023-11-19T12:13:55;14.00;99.90
25342;DHT22;13298;48.792;9.154;2023-11-19T12:16:23;14.10;99.90
25342;DHT22;13298;48.792;9.154;2023-11-19T12:18:49;14.20;99.90
25342;DHT22;13298;48.792;9.154;2023-11-19T12:21:28;14.30;99.90
25342;DHT22;13298;48.792;9.154;2023-11-19T12:23:55;14.40;99.90
25342;DHT22;13298;48.792;9.154;2023-11-19T12:26:36;14.50;99.90
25342;DHT22;13298;48.792;9.154;2023-11-19T12:29:02;14.50;99.90
25342;DHT22;13298;48.792;9.154;2023-11-19T12:31:31;14.50;99.90
25342;DHT22;13298;48.792;9.154;2023-11-19T12:33:57;14.60;99.90
25342;DHT22;13298;48.792;9.154;2023-11-19T12:36:23;14.60;99.90
25342;DHT22;13298;48.792;9.154;2023-11-19T12:38:48;14.50;99.90
25342;DHT22;13298;48.792;9.154;2023-11-19T12:41:14;14.30;99.90
25342;DHT22;13298;48.792;9.154;2023-11-19T12:43:43;14.20;99.90
25342;DHT22;13298;48.792;9.154;2023-11-19T12:46:21;14.00;99.90
25342;DHT22;13298;48.792;9.154;2023-11-19T12:48:48;13.90;99.90
25342;DHT22;13298;48.792;9.154;2023-11-19T12:51:14;13.90;99.90
25342;DHT22;13298;48.792;9.154;2023-11-19T12:53:53;13.80;99.90
25342;DHT22;13298;48.792;9.154;2023-11-19T12:56:24;13.80;99.90
25342;DHT22;13298;48.792;9.154;2023-11-19T12:58:50;13.80;99.90
25342;DHT22;13298;48.792;9.154;2023-11-19T13:01:18;13.90;99.90
25342;DHT22;13298;48.792;9.154;2023-11-19T13:03:45;13.90;99.90
25342;DHT22;13298;48.792;9.154;2023-11-19T13:06:13;14.00;99.90
25342;DHT22;13298;48.792;9.154;2023-11-19T13:08:48;14.10;99.90
25342;DHT22;13298;48.792;9.154;2023-11-19T13:11:34;14.10;99.90
25342;DHT22;13298;48.792;9.154;2023-11-19T13:14:03;14.10;99.90
25342;DHT22;13298;48.792;9.154;2023-11-19T13:16:39;14.20;99.90
25342;DHT22;13298;48.792;9.154;2023-11-19T13:19:04;14.30;99.90
25342;DHT22;13298;48.792;9.154;2023-11-19T13:21:31;14.30;99.90
25342;DHT22;13298;48.792;9.154;2023-11-19T13:23:57;14.30;99.90
25342;DHT22;13298;48.792;9.154;2023-11-19T13:26:23;14.20;99.90
25342;DHT22;13298;48.792;9.154;2023-11-19T13:28:49;14.20;99.90
25342;DHT22;13298;48.792;9.154;2023-11-19T13:31:15;14.20;99.90
25342;DHT22;13298;48.792;9.154;2023-11-19T13:33:41;14.10;99.90
25342;DHT22;13298;48.792;9.154;2023-11-19T13:36:07;14.10;99.90
25342;DHT22;13298;48.792;9.154;2023-11-19T13:38:36;14.00;99.90
25342;DHT22;13298;48.792;9.154;2023-11-19T13:41:03;14.00;99.90
25342;DHT22;13298;48.792;9.154;2023-11-19T13:43:34;13.90;99.90
25342;DHT22;13298;48.792;9.154;2023-11-19T13:45:59;13.80;99.90
25342;DHT22;13298;48.792;9.154;2023-11-19T13:48:25;13.70;99.90
25342;DHT22;13298;48.792;9.154;2023-11-19T13:50:52;13.70;99.90
25342;DHT22;13298;48.792;9.154;2023-11-19T13:53:19;13.60;99.90
25342;DHT22;13298;48.792;9.154;2023-11-19T13:55:44;13.50;99.90
25342;DHT22;13298;48.792;9.154;2023-11-19T13:58:10;13.40;99.90
25342;DHT22;13298;48.792;9.154;2023-11-19T14:00:36;13.40;99.90
25342;DHT22;13298;48.792;9.154;2023-11-19T14:03:03;13.40;99.90
25342;DHT22;13298;48.792;9.154;2023-11-19T14:05:28;13.30;99.90
25342;DHT22;13298;48.792;9.154;2023-11-19T14:07:54;13.20;99.90
25342;DHT22;13298;48.792;9.154;2023-11-19T14:10:22;13.10;99.90
25342;DHT22;13298;48.792;9.154;2023-11-19T14:12:48;13.00;99.90
25342;DHT22;13298;48.792;9.154;2023-11-19T14:15:15;12.90;99.90
25342;DHT22;13298;48.792;9.154;2023-11-19T14:17:42;12.90;99.90
25342;DHT22;13298;48.792;9.154;2023-11-19T14:20:09;12.80;99.90
25342;DHT22;13298;48.792;9.154;2023-11-19T14:22:42;12.80;99.90
25342;DHT22;13298;48.792;9.154;2023-11-19T14:25:09;12.80;99.90
25342;DHT22;13298;48.792;9.154;2023-11-19T14:27:37;12.90;99.90
25342;DHT22;13298;48.792;9.154;2023-11-19T14:30:06;12.90;99.90
25342;DHT22;13298;48.792;9.154;2023-11-19T14:32:35;12.90;99.90
25342;DHT22;13298;48.792;9.154;2023-11-19T14:35:01;12.80;99.90
25342;DHT22;13298;48.792;9.154;2023-11-19T14:37:29;12.70;99.90
25342;DHT22;13298;48.792;9.154;2023-11-19T14:39:56;12.60;99.90
25342;DHT22;13298;48.792;9.154;2023-11-19T14:42:23;12.50;99.90
25342;DHT22;13298;48.792;9.154;2023-11-19T14:44:50;12.50;99.90
25342;DHT22;13298;48.792;9.154;2023-11-19T14:47:19;12.50;99.90
25342;DHT22;13298;48.792;9.154;2023-11-19T14:49:45;12.40;99.90
25342;DHT22;13298;48.792;9.154;2023-11-19T14:52:11;12.40;99.90
25342;DHT22;13298;48.792;9.154;2023-11-19T14:54:37;12.40;99.90
25342;DHT22;13298;48.792;9.154;2023-11-19T14:57:07;12.30;99.90
25342;DHT22;13298;48.792;9.154;2023-11-19T14:59:34;12.40;99.90
25342;DHT22;13298;48.792;9.154;2023-11-19T15:02:00;12.30;99.90
25342;DHT22;13298;48.792;9.154;2023-11-19T15:04:29;12.30;99.90
25342;DHT22;13298;48.792;9.154;2023-11-19T15:06:57;12.20;99.90
25342;DHT22;13298;48.792;9.154;2023-11-19T15:09:23;12.30;99.90
25342;DHT22;13298;48.792;9.154;2023-11-19T15:11:50;12.30;99.90
25342;DHT22;13298;48.792;9.154;2023-11-19T15:14:16;12.40;99.90
25342;DHT22;13298;48.792;9.154;2023-11-19T15:16:44;12.40;99.90
25342;DHT22;13298;48.792;9.154;2023-11-19T15:19:11;12.50;99.90
25342;DHT22;13298;48.792;9.154;2023-11-19T15:21:43;12.50;99.90
25342;DHT22;13298;48.792;9.154;2023-11-19T15:24:09;12.40;99.90
25342;DHT22;13298;48.792;9.154;2023-11-19T15:26:36;12.30;99.90
25342;DHT22;13298;48.792;9.154;2023-11-19T15:29:03;12.20;99.90
25342;DHT22;13298;48.792;9.154;2023-11-19T15:31:30;12.10;99.90
25342;DHT22;13298;48.792;9.154;2023-11-19T15:33:56;12.00;99.90
25342;DHT22;13298;48.792;9.154;2023-11-19T15:36:22;11.90;99.90
25342;DHT22;13298;48.792;9.154;2023-11-19T15:38:48;11.90;99.90
25342;DHT22;13298;48.792;9.154;2023-11-19T15:41:13;11.80;99.90
25342;DHT22;13298;48.792;9.154;2023-11-19T15:46:51;11.70;99.90
25342;DHT22;13298;48.792;9.154;2023-11-19T15:49:19;11.60;99.90
25342;DHT22;13298;48.792;9.154;2023-11-19T15:51:44;11.70;99.90